createdAt,value
2018-06-09T00:00:43.023Z,46.52
2018-06-09T00:03:10.920Z,46.67
2018-06-09T00:05:38.943Z,46.25
2018-06-09T00:08:06.565Z,46.79
2018-06-09T00:10:34.213Z,46.14
2018-06-09T00:13:01.907Z,46.85
2018-06-09T00:15:29.883Z,46.55
2018-06-09T00:17:57.806Z,46.15
2018-06-09T00:20:25.452Z,46.94
2018-06-09T00:22:53.353Z,47.25
2018-06-09T00:25:21.896Z,46.64
2018-06-09T00:27:50.106Z,47.21
2018-06-09T00:30:18.073Z,47.15
2018-06-09T00:32:45.884Z,46.73
2018-06-09T00:35:13.514Z,46.83
2018-06-09T00:37:41.141Z,47.04
2018-06-09T00:40:09.254Z,46.55
2018-06-09T00:42:36.871Z,46.76
2018-06-09T00:45:04.808Z,46.55
2018-06-09T00:47:32.698Z,46.30
2018-06-09T00:50:00.657Z,46.77
2018-06-09T00:52:28.302Z,46.81
2018-06-09T00:54:55.970Z,46.92
2018-06-09T00:57:23.605Z,47.45
2018-06-09T00:59:51.201Z,47.71
2018-06-09T01:02:19.087Z,47.03
2018-06-09T01:04:47.293Z,47.49
2018-06-09T01:07:15.218Z,46.53
2018-06-09T01:09:42.883Z,47.27
2018-06-09T01:12:10.871Z,47.38
2018-06-09T01:14:38.502Z,46.96
2018-06-09T01:17:06.578Z,47.48
2018-06-09T01:19:34.198Z,46.55
2018-06-09T01:22:01.841Z,47.29
2018-06-09T01:24:29.629Z,47.35
2018-06-09T01:26:57.232Z,47.48
2018-06-09T01:29:24.872Z,46.77
2018-06-09T01:31:52.861Z,47.35
2018-06-09T01:34:20.557Z,46.56
2018-06-09T01:36:49.046Z,46.73
2018-06-09T01:39:17.377Z,46.76
2018-06-09T01:41:45.241Z,46.95
2018-06-09T01:44:12.820Z,47.42
2018-06-09T01:46:40.761Z,47.32
2018-06-09T01:49:08.720Z,47.66
2018-06-09T01:51:36.358Z,47.33
2018-06-09T01:54:04.457Z,47.36
2018-06-09T01:56:32.069Z,46.94
2018-06-09T01:59:00.293Z,47.57
2018-06-09T02:01:28.061Z,46.75
2018-06-09T02:03:56.049Z,47.42
2018-06-09T02:06:24.189Z,47.22
2018-06-09T02:08:51.852Z,47.70
2018-06-09T02:11:19.641Z,47.48
2018-06-09T02:13:47.885Z,47.67
2018-06-09T02:16:15.516Z,46.89
2018-06-09T02:18:43.132Z,47.81
2018-06-09T02:21:11.329Z,47.67
2018-06-09T02:23:39.107Z,48.11
2018-06-09T02:26:06.960Z,48.13
2018-06-09T02:28:34.596Z,47.44
2018-06-09T02:31:02.747Z,48.08
2018-06-09T02:33:30.377Z,47.27
2018-06-09T02:35:58.042Z,47.39
2018-06-09T02:38:26.039Z,47.62
2018-06-09T02:40:53.666Z,47.89
2018-06-09T02:43:21.633Z,47.57
2018-06-09T02:45:49.318Z,48.16
2018-06-09T02:48:17.187Z,47.16
2018-06-09T02:50:44.783Z,47.18
2018-06-09T02:53:12.426Z,47.21
2018-06-09T02:55:40.309Z,47.74
2018-06-09T02:58:08.216Z,47.71
2018-06-09T03:00:36.090Z,47.56
2018-06-09T03:03:03.835Z,47.25
2018-06-09T03:05:31.446Z,47.32
2018-06-09T03:07:59.658Z,47.77
2018-06-09T03:10:27.310Z,47.86
2018-06-09T03:12:55.155Z,47.72
2018-06-09T03:15:23.302Z,47.50
2018-06-09T03:17:51.375Z,48.17
2018-06-09T03:20:19.632Z,47.76
2018-06-09T03:22:47.848Z,47.99
2018-06-09T03:25:15.836Z,47.36
2018-06-09T03:27:43.828Z,47.74
2018-06-09T03:30:11.721Z,47.85
2018-06-09T03:32:39.960Z,47.72
2018-06-09T03:35:08.110Z,47.77
2018-06-09T03:37:36.296Z,47.04
2018-06-09T03:40:03.945Z,47.70
2018-06-09T03:42:31.917Z,46.71
2018-06-09T03:45:00.434Z,47.66
2018-06-09T03:47:28.394Z,47.74
2018-06-09T03:49:56.282Z,47.54
2018-06-09T03:52:24.244Z,46.83
2018-06-09T03:54:51.912Z,47.00
2018-06-09T03:57:19.874Z,47.96
2018-06-09T03:59:47.490Z,47.79
2018-06-09T04:02:15.420Z,47.51
2018-06-09T04:04:43.285Z,47.65
2018-06-09T04:07:10.951Z,47.53
2018-06-09T04:09:39.064Z,47.07
2018-06-09T04:12:06.980Z,47.15
2018-06-09T04:14:35.461Z,47.82
2018-06-09T04:17:03.134Z,47.52
2018-06-09T04:19:30.908Z,47.32
2018-06-09T04:21:58.667Z,47.42
2018-06-09T04:24:26.484Z,47.10
2018-06-09T04:26:54.411Z,46.96
2018-06-09T04:29:22.566Z,47.21
2018-06-09T04:31:50.774Z,47.89
2018-06-09T04:34:18.396Z,47.07
2018-06-09T04:36:46.057Z,47.10
2018-06-09T04:39:14.191Z,47.62
2018-06-09T04:41:41.830Z,48.02
2018-06-09T04:44:09.458Z,47.36
2018-06-09T04:46:37.614Z,47.18
2018-06-09T04:49:05.635Z,47.65
2018-06-09T04:51:33.838Z,47.04
2018-06-09T04:54:01.450Z,46.93
2018-06-09T04:56:29.539Z,48.05
2018-06-09T04:58:57.470Z,46.94
2018-06-09T05:01:25.337Z,47.38
2018-06-09T05:03:53.013Z,47.47
2018-06-09T05:06:20.911Z,46.74
2018-06-09T05:08:48.784Z,47.73
2018-06-09T05:11:16.416Z,47.17
2018-06-09T05:13:44.302Z,47.81
2018-06-09T05:16:12.248Z,46.94
2018-06-09T05:18:40.197Z,47.08
2018-06-09T05:21:07.893Z,47.49
2018-06-09T05:23:35.535Z,46.56
2018-06-09T05:26:03.509Z,46.75
2018-06-09T05:28:31.511Z,46.97
2018-06-09T05:30:59.125Z,46.56
2018-06-09T05:33:27.485Z,47.13
2018-06-09T05:35:55.118Z,46.82
2018-06-09T05:38:22.757Z,47.23
2018-06-09T05:40:51.137Z,46.37
2018-06-09T05:43:19.042Z,46.50
2018-06-09T05:45:47.342Z,47.17
2018-06-09T05:48:14.985Z,46.34
2018-06-09T05:50:42.614Z,46.95
2018-06-09T05:53:10.776Z,47.16
2018-06-09T05:55:38.464Z,46.34
2018-06-09T05:58:06.279Z,46.18
2018-06-09T06:00:34.669Z,46.55
2018-06-09T06:03:02.568Z,46.75
2018-06-09T06:05:30.767Z,46.37
2018-06-09T06:07:58.405Z,46.66
2018-06-09T06:10:26.032Z,47.14
2018-06-09T06:12:53.688Z,46.91
2018-06-09T06:15:21.410Z,45.88
2018-06-09T06:17:49.046Z,46.80
2018-06-09T06:20:16.859Z,46.17
2018-06-09T06:22:45.103Z,46.97
2018-06-09T06:25:13.256Z,46.08
2018-06-09T06:27:41.234Z,46.13
2018-06-09T06:30:09.191Z,46.01
2018-06-09T06:32:36.820Z,46.25
2018-06-09T06:35:04.677Z,46.41
2018-06-09T06:37:32.576Z,46.98
2018-06-09T06:40:00.781Z,46.58
2018-06-09T06:42:29.437Z,46.27
2018-06-09T06:44:57.378Z,46.60
2018-06-09T06:47:25.006Z,46.46
2018-06-09T06:49:52.669Z,46.10
2018-06-09T06:52:20.300Z,46.82
2018-06-09T06:54:47.931Z,46.55
2018-06-09T06:57:15.561Z,45.45
2018-06-09T06:59:43.161Z,46.61
2018-06-09T07:02:11.232Z,46.59
2018-06-09T07:04:39.144Z,46.11
2018-06-09T07:07:07.049Z,46.66
2018-06-09T07:09:35.724Z,46.67
2018-06-09T07:12:03.914Z,46.22
2018-06-09T07:14:32.078Z,45.77
2018-06-09T07:16:59.950Z,46.73
2018-06-09T07:19:27.784Z,45.82
2018-06-09T07:21:55.810Z,46.77
2018-06-09T07:24:23.692Z,46.52
2018-06-09T07:26:51.694Z,45.69
2018-06-09T07:29:19.896Z,45.68
2018-06-09T07:31:47.855Z,45.62
2018-06-09T07:34:15.809Z,45.57
2018-06-09T07:36:43.450Z,45.94
2018-06-09T07:39:11.777Z,46.27
2018-06-09T07:41:39.675Z,46.11
2018-06-09T07:44:07.943Z,46.16
2018-06-09T07:46:35.577Z,46.52
2018-06-09T07:49:03.431Z,45.50
2018-06-09T07:51:31.869Z,45.81
2018-06-09T07:53:59.476Z,46.30
2018-06-09T07:56:27.477Z,45.30
2018-06-09T07:58:55.408Z,46.09
2018-06-09T08:01:23.376Z,45.77
2018-06-09T08:03:51.317Z,46.11
2018-06-09T08:06:19.195Z,46.05
2018-06-09T08:08:47.471Z,45.58
2018-06-09T08:11:15.388Z,45.18
2018-06-09T08:13:43.919Z,45.99
2018-06-09T08:16:11.563Z,44.99
2018-06-09T08:18:39.543Z,45.26
2018-06-09T08:21:07.500Z,45.64
2018-06-09T08:23:35.171Z,44.85
2018-06-09T08:26:03.118Z,45.75
2018-06-09T08:28:30.742Z,45.69
2018-06-09T08:30:59.599Z,44.88
2018-06-09T08:33:27.780Z,44.61
2018-06-09T08:35:55.763Z,44.73
2018-06-09T08:38:23.450Z,45.50
2018-06-09T08:40:51.076Z,44.77
2018-06-09T08:43:18.953Z,45.09
2018-06-09T08:45:46.883Z,44.76
2018-06-09T08:48:14.540Z,45.02
2018-06-09T08:50:42.484Z,45.48
2018-06-09T08:53:10.699Z,45.45
2018-06-09T08:55:38.840Z,44.29
2018-06-09T08:58:06.824Z,45.18
2018-06-09T09:00:34.859Z,45.10
2018-06-09T09:03:02.482Z,44.48
2018-06-09T09:05:30.130Z,45.02
2018-06-09T09:07:58.263Z,44.32
2018-06-09T09:10:26.180Z,44.17
2018-06-09T09:12:53.799Z,44.82
2018-06-09T09:15:22.085Z,44.85
2018-06-09T09:17:50.055Z,44.02
2018-06-09T09:20:18.058Z,44.81
2018-06-09T09:22:46.049Z,44.81
2018-06-09T09:25:14.312Z,44.91
2018-06-09T09:27:41.982Z,44.39
2018-06-09T09:30:09.855Z,44.01
2018-06-09T09:32:37.869Z,44.35
2018-06-09T09:35:06.098Z,44.30
2018-06-09T09:37:34.062Z,43.57
2018-06-09T09:40:01.720Z,43.75
2018-06-09T09:42:29.337Z,44.25
2018-06-09T09:44:56.989Z,44.19
2018-06-09T09:47:25.159Z,43.01
2018-06-09T09:49:53.125Z,42.95
2018-06-09T09:52:20.753Z,43.21
2018-06-09T09:54:48.868Z,43.85
2018-06-09T09:57:16.843Z,42.68
2018-06-09T09:59:44.765Z,42.89
2018-06-09T10:02:12.754Z,43.20
2018-06-09T10:04:40.472Z,42.56
2018-06-09T10:07:08.652Z,42.77
2018-06-09T10:09:36.320Z,43.10
2018-06-09T10:12:03.964Z,42.17
2018-06-09T10:14:31.946Z,42.55
2018-06-09T10:16:59.608Z,43.00
2018-06-09T10:19:27.810Z,42.65
2018-06-09T10:21:55.482Z,42.16
2018-06-09T10:24:23.429Z,42.99
2018-06-09T10:26:51.485Z,42.43
2018-06-09T10:29:19.438Z,42.29
2018-06-09T10:31:47.335Z,42.88
2018-06-09T10:34:15.003Z,41.81
2018-06-09T10:36:42.968Z,42.77
2018-06-09T10:39:10.618Z,41.85
2018-06-09T10:41:38.593Z,42.07
2018-06-09T10:44:06.257Z,41.97
2018-06-09T10:46:33.921Z,42.45
2018-06-09T10:49:01.595Z,42.73
2018-06-09T10:51:29.767Z,41.83
2018-06-09T10:53:57.924Z,42.07
2018-06-09T10:56:25.594Z,42.36
2018-06-09T10:58:53.477Z,42.50
2018-06-09T11:01:21.147Z,42.36
2018-06-09T11:03:48.786Z,42.37
2018-06-09T11:06:16.482Z,42.54
2018-06-09T11:08:44.641Z,43.00
2018-06-09T11:11:12.724Z,42.27
2018-06-09T11:13:40.353Z,42.87
2018-06-09T11:16:07.986Z,42.42
2018-06-09T11:18:35.943Z,42.25
2018-06-09T11:21:04.102Z,42.85
2018-06-09T11:23:32.261Z,41.96
2018-06-09T11:25:59.894Z,41.97
2018-06-09T11:28:27.545Z,42.90
2018-06-09T11:30:55.252Z,42.48
2018-06-09T11:33:23.171Z,42.08
2018-06-09T11:35:50.772Z,42.23
2018-06-09T11:38:19.046Z,42.50
2018-06-09T11:40:46.703Z,42.78
2018-06-09T11:43:14.329Z,42.39
2018-06-09T11:45:42.224Z,42.67
2018-06-09T11:48:09.837Z,42.54
2018-06-09T11:50:37.493Z,42.10
2018-06-09T11:53:05.403Z,42.10
2018-06-09T11:55:33.375Z,42.17
2018-06-09T11:58:01.232Z,42.16
2018-06-09T12:00:28.880Z,42.67
2018-06-09T12:02:56.521Z,41.94
2018-06-09T12:05:24.234Z,42.31
2018-06-09T12:07:51.875Z,42.21
2018-06-09T12:10:19.515Z,42.64
2018-06-09T12:12:47.269Z,42.13
2018-06-09T12:15:15.349Z,42.14
2018-06-09T12:17:43.243Z,42.62
2018-06-09T12:20:11.233Z,41.89
2018-06-09T12:22:38.890Z,42.01
2018-06-09T12:25:06.575Z,42.25
2018-06-09T12:27:34.198Z,42.08
2018-06-09T12:30:02.165Z,41.87
2018-06-09T12:32:30.198Z,41.39
2018-06-09T12:34:58.102Z,41.18
2018-06-09T12:37:25.975Z,41.03
2018-06-09T12:39:53.925Z,41.50
2018-06-09T12:42:21.565Z,41.41
2018-06-09T12:44:49.500Z,40.75
2018-06-09T12:47:17.192Z,41.67
2018-06-09T12:49:45.102Z,41.70
2018-06-09T12:52:13.061Z,41.37
2018-06-09T12:54:40.704Z,40.85
2018-06-09T12:57:08.738Z,41.41
2018-06-09T12:59:36.969Z,41.21
2018-06-09T13:02:04.938Z,40.90
2018-06-09T13:04:32.605Z,40.79
2018-06-09T13:07:00.599Z,41.73
2018-06-09T13:09:29.197Z,40.71
2018-06-09T13:11:56.841Z,41.29
2018-06-09T13:14:24.477Z,40.55
2018-06-09T13:16:52.150Z,40.95
2018-06-09T13:19:19.803Z,40.48
2018-06-09T13:21:47.769Z,40.85
2018-06-09T13:24:16.353Z,41.46
2018-06-09T13:26:44.257Z,40.83
2018-06-09T13:29:11.906Z,41.04
2018-06-09T13:31:39.948Z,40.50
2018-06-09T13:34:07.593Z,40.79
2018-06-09T13:36:35.470Z,41.04
2018-06-09T13:39:04.214Z,40.75
2018-06-09T13:41:32.174Z,41.04
2018-06-09T13:44:00.046Z,40.42
2018-06-09T13:46:27.710Z,40.49
2018-06-09T13:48:55.392Z,39.98
2018-06-09T13:51:23.049Z,40.04
2018-06-09T13:53:50.890Z,40.91
2018-06-09T13:56:18.821Z,40.50
2018-06-09T13:58:47.093Z,39.79
2018-06-09T14:01:14.729Z,40.03
2018-06-09T14:03:42.374Z,40.03
2018-06-09T14:06:10.431Z,40.15
2018-06-09T14:08:38.392Z,39.70
2018-06-09T14:11:06.080Z,39.54
2018-06-09T14:13:33.855Z,39.40
2018-06-09T14:16:01.820Z,39.47
2018-06-09T14:18:29.693Z,40.21
2018-06-09T14:20:58.110Z,40.27
2018-06-09T14:23:25.736Z,39.83
2018-06-09T14:25:53.382Z,38.63
2018-06-09T14:28:21.387Z,36.84
2018-06-09T14:30:49.085Z,34.98
2018-06-09T14:33:17.025Z,32.89
2018-06-09T14:35:44.691Z,32.57
2018-06-09T14:38:12.597Z,31.20
2018-06-09T14:40:40.472Z,30.54
2018-06-09T14:43:08.105Z,29.87
2018-06-09T14:45:36.074Z,30.42
2018-06-09T14:48:04.326Z,31.19
2018-06-09T14:50:31.982Z,30.70
2018-06-09T14:52:59.592Z,30.14
2018-06-09T14:55:28.050Z,29.82
2018-06-09T14:57:56.197Z,29.76
2018-06-09T15:00:24.043Z,29.92
2018-06-09T15:02:52.043Z,31.70
2018-06-09T15:05:20.008Z,33.11
2018-06-09T15:07:47.919Z,34.92
2018-06-09T15:10:15.904Z,35.85
2018-06-09T15:12:43.808Z,36.53
2018-06-09T15:15:11.716Z,36.39
2018-06-09T15:17:39.609Z,37.35
2018-06-09T15:20:07.558Z,37.42
2018-06-09T15:22:35.241Z,37.84
2018-06-09T15:25:03.237Z,37.77
2018-06-09T15:27:31.284Z,37.84
2018-06-09T15:29:59.185Z,38.09
2018-06-09T15:32:26.796Z,37.70
2018-06-09T15:34:54.949Z,38.42
2018-06-09T15:37:22.833Z,37.95
2018-06-09T15:39:50.788Z,38.91
2018-06-09T15:42:18.454Z,38.23
2018-06-09T15:44:46.388Z,38.44
2018-06-09T15:47:14.046Z,39.36
2018-06-09T15:49:41.772Z,39.06
2018-06-09T15:52:09.384Z,38.76
2018-06-09T15:54:37.360Z,38.89
2018-06-09T15:57:05.296Z,39.42
2018-06-09T15:59:33.242Z,39.46
2018-06-09T16:02:00.916Z,39.39
2018-06-09T16:04:28.566Z,39.54
2018-06-09T16:06:56.682Z,39.84
2018-06-09T16:09:24.838Z,39.89
2018-06-09T16:11:52.502Z,38.92
2018-06-09T16:14:20.164Z,39.35
2018-06-09T16:16:47.795Z,39.35
2018-06-09T16:19:15.536Z,39.82
2018-06-09T16:21:43.396Z,39.75
2018-06-09T16:24:11.290Z,39.32
2018-06-09T16:26:39.599Z,39.68
2018-06-09T16:29:07.271Z,39.62
2018-06-09T16:31:34.905Z,39.29
2018-06-09T16:34:02.654Z,39.41
2018-06-09T16:36:30.841Z,39.75
2018-06-09T16:38:58.449Z,40.17
2018-06-09T16:41:26.112Z,40.05
2018-06-09T16:43:54.049Z,40.28
2018-06-09T16:46:21.649Z,39.80
2018-06-09T16:48:49.312Z,39.62
2018-06-09T16:51:16.954Z,39.79
2018-06-09T16:53:44.843Z,40.61
2018-06-09T16:56:12.593Z,40.18
2018-06-09T16:58:40.528Z,40.29
2018-06-09T17:01:08.152Z,41.11
2018-06-09T17:03:36.183Z,40.69
2018-06-09T17:06:03.806Z,40.30
2018-06-09T17:08:32.526Z,41.43
2018-06-09T17:11:00.414Z,40.93
2018-06-09T17:13:28.190Z,41.58
2018-06-09T17:15:55.968Z,40.78
2018-06-09T17:18:24.025Z,41.20
2018-06-09T17:20:52.070Z,41.07
2018-06-09T17:23:19.759Z,41.83
2018-06-09T17:25:47.832Z,41.07
2018-06-09T17:28:15.653Z,41.74
2018-06-09T17:30:43.436Z,41.02
2018-06-09T17:33:11.488Z,42.12
2018-06-09T17:35:39.511Z,41.13
2018-06-09T17:38:07.222Z,41.80
2018-06-09T17:40:34.912Z,41.89
2018-06-09T17:43:02.920Z,41.58
2018-06-09T17:45:30.621Z,41.38
2018-06-09T17:47:58.673Z,41.12
2018-06-09T17:50:26.485Z,41.71
2018-06-09T17:52:54.659Z,41.42
2018-06-09T17:55:22.442Z,40.78
2018-06-09T17:57:50.531Z,41.62
2018-06-09T18:00:18.622Z,41.62
2018-06-09T18:02:46.361Z,41.58
2018-06-09T18:05:14.609Z,42.29
2018-06-09T18:07:42.624Z,41.80
2018-06-09T18:10:10.335Z,42.11
2018-06-09T18:12:38.532Z,41.94
2018-06-09T18:15:06.709Z,42.24
2018-06-09T18:17:34.425Z,41.72
2018-06-09T18:20:02.523Z,42.36
2018-06-09T18:22:30.710Z,41.92
2018-06-09T18:24:58.731Z,41.85
2018-06-09T18:27:26.487Z,42.49
2018-06-09T18:29:54.568Z,42.50
2018-06-09T18:32:22.373Z,41.98
2018-06-09T18:34:50.076Z,43.01
2018-06-09T18:37:18.825Z,42.07
2018-06-09T18:39:46.981Z,42.54
2018-06-09T18:42:14.756Z,42.68
2018-06-09T18:44:43.082Z,42.66
2018-06-09T18:47:10.843Z,43.27
2018-06-09T18:49:38.699Z,42.48
2018-06-09T18:52:06.669Z,43.59
2018-06-09T18:54:34.368Z,42.66
2018-06-09T18:57:02.357Z,43.40
2018-06-09T18:59:30.122Z,43.25
2018-06-09T19:01:58.231Z,43.24
2018-06-09T19:04:26.256Z,43.47
2018-06-09T19:06:54.104Z,43.69
2018-06-09T19:09:22.012Z,43.68
2018-06-09T19:11:49.802Z,44.18
2018-06-09T19:14:17.521Z,43.32
2018-06-09T19:16:45.991Z,43.49
2018-06-09T19:19:13.760Z,44.37
2018-06-09T19:21:41.523Z,44.20
2018-06-09T19:24:09.304Z,44.14
2018-06-09T19:26:36.994Z,43.68
2018-06-09T19:29:04.749Z,44.36
2018-06-09T19:31:32.452Z,43.79
2018-06-09T19:34:00.497Z,44.68
2018-06-09T19:36:28.193Z,44.29
2018-06-09T19:38:56.091Z,44.73
2018-06-09T19:41:23.811Z,45.06
2018-06-09T19:43:51.545Z,44.34
2018-06-09T19:46:20.154Z,44.08
2018-06-09T19:48:47.926Z,44.97
2018-06-09T19:51:15.664Z,44.88
2018-06-09T19:53:43.976Z,44.38
2018-06-09T19:56:12.121Z,44.82
2018-06-09T19:58:39.965Z,44.75
2018-06-09T20:01:07.670Z,44.98
2018-06-09T20:03:35.616Z,45.46
2018-06-09T20:06:03.358Z,44.79
2018-06-09T20:08:31.193Z,45.24
2018-06-09T20:10:59.504Z,45.41
2018-06-09T20:13:27.230Z,45.07
2018-06-09T20:15:54.965Z,44.98
2018-06-09T20:18:23.122Z,45.78
2018-06-09T20:20:51.022Z,45.28
2018-06-09T20:23:19.008Z,45.14
2018-06-09T20:25:46.765Z,45.31
2018-06-09T20:28:14.519Z,45.08
2018-06-09T20:30:42.222Z,45.58
2018-06-09T20:33:09.914Z,45.16
2018-06-09T20:35:37.977Z,45.33
2018-06-09T20:38:05.679Z,45.80
2018-06-09T20:40:33.520Z,45.11
2018-06-09T20:43:02.026Z,45.75
2018-06-09T20:45:30.099Z,45.52
2018-06-09T20:47:57.916Z,45.52
2018-06-09T20:50:25.615Z,45.50
2018-06-09T20:52:53.309Z,46.15
2018-06-09T20:55:21.341Z,45.04
2018-06-09T20:57:49.999Z,45.68
2018-06-09T21:00:17.753Z,45.14
2018-06-09T21:02:45.486Z,46.05
2018-06-09T21:05:13.526Z,46.00
2018-06-09T21:07:41.548Z,46.05
2018-06-09T21:10:09.381Z,45.55
2018-06-09T21:12:37.412Z,45.54
2018-06-09T21:15:05.514Z,45.46
2018-06-09T21:17:33.475Z,46.05
2018-06-09T21:20:01.379Z,45.48
2018-06-09T21:22:29.379Z,46.59
2018-06-09T21:24:57.314Z,46.08
2018-06-09T21:27:33.305Z,46.16
2018-06-09T21:30:05.810Z,45.94
2018-06-09T21:32:39.280Z,46.74
2018-06-09T21:35:23.710Z,45.70
2018-06-09T21:37:56.041Z,46.29
2018-06-09T21:40:23.963Z,46.01
2018-06-09T21:42:57.350Z,46.54
2018-06-09T21:45:30.522Z,46.04
2018-06-09T21:47:58.490Z,45.86
2018-06-09T21:50:26.818Z,46.42
2018-06-09T21:52:54.675Z,46.07
2018-06-09T21:55:22.280Z,46.84
2018-06-09T21:57:50.599Z,46.47
2018-06-09T22:00:18.204Z,46.40
2018-06-09T22:02:46.160Z,46.96
2018-06-09T22:05:13.830Z,47.12
2018-06-09T22:07:41.430Z,46.52
2018-06-09T22:10:09.333Z,47.05
2018-06-09T22:12:36.998Z,46.97
2018-06-09T22:15:05.028Z,47.15
2018-06-09T22:17:32.934Z,46.48
2018-06-09T22:20:00.581Z,47.04
2018-06-09T22:22:28.495Z,46.04
2018-06-09T22:24:56.453Z,46.49
2018-06-09T22:27:24.073Z,46.77
2018-06-09T22:29:51.681Z,46.20
2018-06-09T22:32:19.674Z,46.35
2018-06-09T22:34:47.654Z,46.50
2018-06-09T22:37:15.623Z,46.49
2018-06-09T22:39:43.285Z,47.46
2018-06-09T22:42:10.906Z,47.34
2018-06-09T22:44:38.821Z,47.23
2018-06-09T22:47:06.714Z,46.43
2018-06-09T22:49:34.309Z,46.74
2018-06-09T22:52:02.488Z,47.41
2018-06-09T22:54:30.496Z,46.45
2018-06-09T22:56:58.419Z,46.98
2018-06-09T22:59:26.186Z,46.56
2018-06-09T23:01:54.076Z,47.12
2018-06-09T23:04:21.955Z,47.39
2018-06-09T23:06:50.509Z,47.13
2018-06-09T23:09:18.405Z,46.81
2018-06-09T23:11:46.226Z,47.13
2018-06-09T23:14:14.194Z,47.47
2018-06-09T23:16:42.148Z,47.14
2018-06-09T23:19:10.497Z,47.45
2018-06-09T23:21:39.010Z,47.56
2018-06-09T23:24:06.978Z,46.74
2018-06-09T23:26:34.991Z,47.33
2018-06-09T23:29:02.837Z,47.57
2018-06-09T23:31:30.775Z,47.68
2018-06-09T23:33:58.853Z,47.74
2018-06-09T23:36:26.716Z,47.06
2018-06-09T23:38:54.654Z,47.50
2018-06-09T23:41:23.147Z,47.24
2018-06-09T23:43:51.034Z,47.82
2018-06-09T23:46:18.930Z,47.88
2018-06-09T23:48:47.221Z,47.74
2018-06-09T23:51:15.142Z,47.40
2018-06-09T23:53:42.732Z,47.18
2018-06-09T23:56:10.385Z,47.68
2018-06-09T23:58:38.298Z,47.83
